sensor_id;sensor_type;location;lat;lon;timestamp;P1;durP1;ratioP1;P2;durP2;ratioP2
27539;SDS011;15906;52.046;4.724;2022-10-16T00:02:24;2.95;;;1.30;;
27539;SDS011;15906;52.046;4.724;2022-10-16T00:04:49;3.55;;;1.42;;
27539;SDS011;15906;52.046;4.724;2022-10-16T00:07:15;5.38;;;1.27;;
27539;SDS011;15906;52.046;4.724;2022-10-16T00:09:40;3.78;;;1.63;;
27539;SDS011;15906;52.046;4.724;2022-10-16T00:12:06;2.53;;;1.33;;
27539;SDS011;15906;52.046;4.724;2022-10-16T00:14:32;4.32;;;1.42;;
27539;SDS011;15906;52.046;4.724;2022-10-16T00:16:57;3.83;;;1.50;;
27539;SDS011;15906;52.046;4.724;2022-10-16T00:19:23;2.72;;;1.50;;
27539;SDS011;15906;52.046;4.724;2022-10-16T00:21:48;4.10;;;1.60;;
27539;SDS011;15906;52.046;4.724;2022-10-16T00:24:14;6.10;;;1.60;;
27539;SDS011;15906;52.046;4.724;2022-10-16T00:26:40;5.57;;;1.63;;
27539;SDS011;15906;52.046;4.724;2022-10-16T00:29:06;3.88;;;1.30;;
27539;SDS011;15906;52.046;4.724;2022-10-16T00:31:32;4.78;;;1.52;;
27539;SDS011;15906;52.046;4.724;2022-10-16T00:33:58;4.13;;;1.30;;
27539;SDS011;15906;52.046;4.724;2022-10-16T00:36:24;3.55;;;1.80;;
27539;SDS011;15906;52.046;4.724;2022-10-16T00:38:51;3.90;;;1.67;;
27539;SDS011;15906;52.046;4.724;2022-10-16T00:41:22;3.20;;;1.30;;
27539;SDS011;15906;52.046;4.724;2022-10-16T00:43:50;1.25;;;0.90;;
27539;SDS011;15906;52.046;4.724;2022-10-16T00:46:31;4.35;;;1.15;;
27539;SDS011;15906;52.046;4.724;2022-10-16T00:51:33;2.08;;;1.25;;
27539;SDS011;15906;52.046;4.724;2022-10-16T00:54:04;4.13;;;1.52;;
27539;SDS011;15906;52.046;4.724;2022-10-16T00:56:38;3.80;;;1.50;;
27539;SDS011;15906;52.046;4.724;2022-10-16T00:59:04;3.50;;;1.65;;
27539;SDS011;15906;52.046;4.724;2022-10-16T01:01:35;2.63;;;1.60;;
27539;SDS011;15906;52.046;4.724;2022-10-16T01:04:00;3.40;;;1.20;;
27539;SDS011;15906;52.046;4.724;2022-10-16T01:06:35;4.13;;;1.58;;
27539;SDS011;15906;52.046;4.724;2022-10-16T01:09:16;4.05;;;1.90;;
27539;SDS011;15906;52.046;4.724;2022-10-16T01:12:01;3.47;;;1.60;;
27539;SDS011;15906;52.046;4.724;2022-10-16T01:14:59;5.07;;;1.85;;
27539;SDS011;15906;52.046;4.724;2022-10-16T01:17:41;5.57;;;2.05;;
27539;SDS011;15906;52.046;4.724;2022-10-16T01:23:10;3.17;;;1.73;;
27539;SDS011;15906;52.046;4.724;2022-10-16T01:26:10;5.57;;;1.70;;
27539;SDS011;15906;52.046;4.724;2022-10-16T01:28:53;2.80;;;1.58;;
27539;SDS011;15906;52.046;4.724;2022-10-16T01:31:23;5.32;;;1.75;;
27539;SDS011;15906;52.046;4.724;2022-10-16T01:33:56;3.15;;;1.52;;
27539;SDS011;15906;52.046;4.724;2022-10-16T01:36:29;5.10;;;1.98;;
27539;SDS011;15906;52.046;4.724;2022-10-16T01:39:02;3.28;;;1.75;;
27539;SDS011;15906;52.046;4.724;2022-10-16T01:41:32;5.88;;;1.92;;
27539;SDS011;15906;52.046;4.724;2022-10-16T01:44:23;2.17;;;1.50;;
27539;SDS011;15906;52.046;4.724;2022-10-16T01:46:50;2.40;;;1.80;;
27539;SDS011;15906;52.046;4.724;2022-10-16T01:49:17;3.92;;;1.60;;
27539;SDS011;15906;52.046;4.724;2022-10-16T01:51:43;7.07;;;1.35;;
27539;SDS011;15906;52.046;4.724;2022-10-16T01:54:13;5.00;;;1.90;;
27539;SDS011;15906;52.046;4.724;2022-10-16T01:56:41;2.53;;;1.55;;
27539;SDS011;15906;52.046;4.724;2022-10-16T01:59:11;7.00;;;1.85;;
27539;SDS011;15906;52.046;4.724;2022-10-16T02:01:40;4.03;;;1.80;;
27539;SDS011;15906;52.046;4.724;2022-10-16T02:04:11;4.95;;;1.88;;
27539;SDS011;15906;52.046;4.724;2022-10-16T02:06:43;2.20;;;1.65;;
27539;SDS011;15906;52.046;4.724;2022-10-16T02:09:09;4.63;;;2.10;;
27539;SDS011;15906;52.046;4.724;2022-10-16T02:11:35;4.65;;;2.30;;
27539;SDS011;15906;52.046;4.724;2022-10-16T02:14:02;7.43;;;2.30;;
27539;SDS011;15906;52.046;4.724;2022-10-16T02:16:40;5.10;;;2.00;;
27539;SDS011;15906;52.046;4.724;2022-10-16T02:19:07;6.35;;;2.40;;
27539;SDS011;15906;52.046;4.724;2022-10-16T02:26:57;3.17;;;2.13;;
27539;SDS011;15906;52.046;4.724;2022-10-16T02:29:39;4.18;;;2.50;;
27539;SDS011;15906;52.046;4.724;2022-10-16T02:32:09;4.78;;;2.30;;
27539;SDS011;15906;52.046;4.724;2022-10-16T02:34:37;4.15;;;2.30;;
27539;SDS011;15906;52.046;4.724;2022-10-16T02:37:04;3.08;;;2.20;;
27539;SDS011;15906;52.046;4.724;2022-10-16T02:39:31;6.25;;;2.35;;
27539;SDS011;15906;52.046;4.724;2022-10-16T02:41:57;2.83;;;2.28;;
27539;SDS011;15906;52.046;4.724;2022-10-16T02:44:23;4.65;;;2.10;;
27539;SDS011;15906;52.046;4.724;2022-10-16T02:46:49;2.53;;;1.83;;
27539;SDS011;15906;52.046;4.724;2022-10-16T02:49:14;2.92;;;1.77;;
27539;SDS011;15906;52.046;4.724;2022-10-16T02:51:40;3.47;;;2.20;;
27539;SDS011;15906;52.046;4.724;2022-10-16T02:54:05;9.35;;;2.63;;
27539;SDS011;15906;52.046;4.724;2022-10-16T02:56:31;2.50;;;2.10;;
27539;SDS011;15906;52.046;4.724;2022-10-16T02:58:57;2.75;;;1.65;;
27539;SDS011;15906;52.046;4.724;2022-10-16T03:01:23;4.13;;;2.47;;
27539;SDS011;15906;52.046;4.724;2022-10-16T03:03:48;5.68;;;1.80;;
27539;SDS011;15906;52.046;4.724;2022-10-16T03:06:14;2.88;;;2.00;;
27539;SDS011;15906;52.046;4.724;2022-10-16T03:08:40;3.47;;;1.63;;
27539;SDS011;15906;52.046;4.724;2022-10-16T03:11:05;8.63;;;1.95;;
27539;SDS011;15906;52.046;4.724;2022-10-16T03:13:31;5.03;;;2.00;;
27539;SDS011;15906;52.046;4.724;2022-10-16T03:15:56;3.58;;;1.83;;
27539;SDS011;15906;52.046;4.724;2022-10-16T03:18:22;3.85;;;2.00;;
27539;SDS011;15906;52.046;4.724;2022-10-16T03:20:47;4.15;;;1.38;;
27539;SDS011;15906;52.046;4.724;2022-10-16T03:23:13;5.07;;;1.80;;
27539;SDS011;15906;52.046;4.724;2022-10-16T03:25:39;3.10;;;1.85;;
27539;SDS011;15906;52.046;4.724;2022-10-16T03:28:04;4.63;;;1.70;;
27539;SDS011;15906;52.046;4.724;2022-10-16T03:30:30;7.78;;;1.45;;
27539;SDS011;15906;52.046;4.724;2022-10-16T03:32:56;2.65;;;1.50;;
27539;SDS011;15906;52.046;4.724;2022-10-16T03:35:22;4.97;;;1.80;;
27539;SDS011;15906;52.046;4.724;2022-10-16T03:37:48;7.00;;;1.73;;
27539;SDS011;15906;52.046;4.724;2022-10-16T03:40:14;6.10;;;1.70;;
27539;SDS011;15906;52.046;4.724;2022-10-16T03:42:41;2.80;;;1.58;;
27539;SDS011;15906;52.046;4.724;2022-10-16T03:45:08;6.32;;;1.98;;
27539;SDS011;15906;52.046;4.724;2022-10-16T03:47:34;6.13;;;1.70;;
27539;SDS011;15906;52.046;4.724;2022-10-16T03:50:00;3.95;;;1.60;;
27539;SDS011;15906;52.046;4.724;2022-10-16T03:52:26;4.43;;;1.85;;
27539;SDS011;15906;52.046;4.724;2022-10-16T03:54:51;2.35;;;1.50;;
27539;SDS011;15906;52.046;4.724;2022-10-16T03:57:17;4.40;;;1.73;;
27539;SDS011;15906;52.046;4.724;2022-10-16T03:59:42;4.32;;;1.55;;
27539;SDS011;15906;52.046;4.724;2022-10-16T04:02:08;3.75;;;1.70;;
27539;SDS011;15906;52.046;4.724;2022-10-16T04:04:34;3.78;;;1.50;;
27539;SDS011;15906;52.046;4.724;2022-10-16T04:06:59;3.72;;;1.60;;
27539;SDS011;15906;52.046;4.724;2022-10-16T04:09:25;5.00;;;1.77;;
27539;SDS011;15906;52.046;4.724;2022-10-16T04:11:51;2.35;;;1.60;;
27539;SDS011;15906;52.046;4.724;2022-10-16T04:14:16;6.07;;;1.67;;
27539;SDS011;15906;52.046;4.724;2022-10-16T04:16:42;3.50;;;1.65;;
27539;SDS011;15906;52.046;4.724;2022-10-16T04:19:08;5.05;;;2.05;;
27539;SDS011;15906;52.046;4.724;2022-10-16T04:21:34;2.60;;;1.48;;
27539;SDS011;15906;52.046;4.724;2022-10-16T04:24:00;4.10;;;1.70;;
27539;SDS011;15906;52.046;4.724;2022-10-16T04:26:25;4.13;;;1.50;;
27539;SDS011;15906;52.046;4.724;2022-10-16T04:28:51;4.22;;;1.75;;
27539;SDS011;15906;52.046;4.724;2022-10-16T04:31:16;3.50;;;1.75;;
27539;SDS011;15906;52.046;4.724;2022-10-16T04:33:42;5.63;;;1.60;;
27539;SDS011;15906;52.046;4.724;2022-10-16T04:36:08;2.10;;;1.40;;
27539;SDS011;15906;52.046;4.724;2022-10-16T04:38:34;3.30;;;1.65;;
27539;SDS011;15906;52.046;4.724;2022-10-16T04:40:59;4.18;;;1.60;;
27539;SDS011;15906;52.046;4.724;2022-10-16T04:43:25;6.95;;;1.80;;
27539;SDS011;15906;52.046;4.724;2022-10-16T04:45:51;3.25;;;1.60;;
27539;SDS011;15906;52.046;4.724;2022-10-16T04:48:18;7.82;;;1.70;;
27539;SDS011;15906;52.046;4.724;2022-10-16T04:50:43;4.72;;;2.00;;
27539;SDS011;15906;52.046;4.724;2022-10-16T04:53:09;7.30;;;2.00;;
27539;SDS011;15906;52.046;4.724;2022-10-16T04:55:35;7.78;;;1.85;;
27539;SDS011;15906;52.046;4.724;2022-10-16T04:58:00;2.80;;;1.70;;
27539;SDS011;15906;52.046;4.724;2022-10-16T05:00:26;5.95;;;2.85;;
27539;SDS011;15906;52.046;4.724;2022-10-16T05:02:51;2.30;;;1.48;;
27539;SDS011;15906;52.046;4.724;2022-10-16T05:05:17;2.88;;;1.40;;
27539;SDS011;15906;52.046;4.724;2022-10-16T05:07:44;9.18;;;1.90;;
27539;SDS011;15906;52.046;4.724;2022-10-16T05:10:10;5.93;;;1.95;;
27539;SDS011;15906;52.046;4.724;2022-10-16T05:12:36;3.63;;;1.50;;
27539;SDS011;15906;52.046;4.724;2022-10-16T05:15:02;4.13;;;1.90;;
27539;SDS011;15906;52.046;4.724;2022-10-16T05:17:28;4.05;;;1.67;;
27539;SDS011;15906;52.046;4.724;2022-10-16T05:19:53;6.72;;;2.00;;
27539;SDS011;15906;52.046;4.724;2022-10-16T05:22:19;5.85;;;1.85;;
27539;SDS011;15906;52.046;4.724;2022-10-16T05:24:45;7.55;;;2.15;;
27539;SDS011;15906;52.046;4.724;2022-10-16T05:27:10;3.50;;;1.63;;
27539;SDS011;15906;52.046;4.724;2022-10-16T05:29:43;6.20;;;1.75;;
27539;SDS011;15906;52.046;4.724;2022-10-16T05:32:10;7.07;;;1.88;;
27539;SDS011;15906;52.046;4.724;2022-10-16T05:34:36;8.23;;;1.83;;
27539;SDS011;15906;52.046;4.724;2022-10-16T05:37:02;3.35;;;1.63;;
27539;SDS011;15906;52.046;4.724;2022-10-16T05:39:27;4.78;;;1.90;;
27539;SDS011;15906;52.046;4.724;2022-10-16T05:41:53;5.70;;;2.10;;
27539;SDS011;15906;52.046;4.724;2022-10-16T05:44:18;3.55;;;1.90;;
27539;SDS011;15906;52.046;4.724;2022-10-16T05:46:45;6.50;;;2.17;;
27539;SDS011;15906;52.046;4.724;2022-10-16T05:49:11;2.50;;;1.67;;
27539;SDS011;15906;52.046;4.724;2022-10-16T05:51:37;3.28;;;1.60;;
27539;SDS011;15906;52.046;4.724;2022-10-16T05:54:02;3.55;;;1.83;;
27539;SDS011;15906;52.046;4.724;2022-10-16T05:56:28;5.22;;;1.60;;
27539;SDS011;15906;52.046;4.724;2022-10-16T05:58:54;4.32;;;1.83;;
27539;SDS011;15906;52.046;4.724;2022-10-16T06:01:19;5.28;;;2.00;;
27539;SDS011;15906;52.046;4.724;2022-10-16T06:03:48;8.15;;;2.47;;
27539;SDS011;15906;52.046;4.724;2022-10-16T06:06:16;3.85;;;1.92;;
27539;SDS011;15906;52.046;4.724;2022-10-16T06:08:46;6.93;;;1.83;;
27539;SDS011;15906;52.046;4.724;2022-10-16T06:11:14;5.07;;;2.13;;
27539;SDS011;15906;52.046;4.724;2022-10-16T06:13:43;7.85;;;3.15;;
27539;SDS011;15906;52.046;4.724;2022-10-16T06:16:10;5.50;;;2.05;;
27539;SDS011;15906;52.046;4.724;2022-10-16T06:18:36;4.55;;;1.55;;
27539;SDS011;15906;52.046;4.724;2022-10-16T06:21:09;5.30;;;1.77;;
27539;SDS011;15906;52.046;4.724;2022-10-16T06:23:36;7.00;;;1.95;;
27539;SDS011;15906;52.046;4.724;2022-10-16T06:26:06;7.30;;;2.33;;
27539;SDS011;15906;52.046;4.724;2022-10-16T06:28:36;5.50;;;1.77;;
27539;SDS011;15906;52.046;4.724;2022-10-16T06:31:03;5.55;;;1.92;;
27539;SDS011;15906;52.046;4.724;2022-10-16T06:33:29;3.10;;;1.60;;
27539;SDS011;15906;52.046;4.724;2022-10-16T06:36:06;5.20;;;1.80;;
27539;SDS011;15906;52.046;4.724;2022-10-16T06:38:33;4.65;;;1.75;;
27539;SDS011;15906;52.046;4.724;2022-10-16T06:40:59;2.17;;;1.10;;
27539;SDS011;15906;52.046;4.724;2022-10-16T06:43:25;6.07;;;1.80;;
27539;SDS011;15906;52.046;4.724;2022-10-16T06:45:54;3.03;;;1.25;;
27539;SDS011;15906;52.046;4.724;2022-10-16T06:48:20;3.08;;;1.10;;
27539;SDS011;15906;52.046;4.724;2022-10-16T06:51:00;3.90;;;1.10;;
27539;SDS011;15906;52.046;4.724;2022-10-16T06:53:28;5.25;;;1.05;;
27539;SDS011;15906;52.046;4.724;2022-10-16T06:55:56;3.53;;;1.20;;
27539;SDS011;15906;52.046;4.724;2022-10-16T06:58:22;5.20;;;1.77;;
27539;SDS011;15906;52.046;4.724;2022-10-16T07:00:48;6.70;;;1.20;;
27539;SDS011;15906;52.046;4.724;2022-10-16T07:03:14;4.13;;;1.20;;
27539;SDS011;15906;52.046;4.724;2022-10-16T07:05:40;4.90;;;1.20;;
27539;SDS011;15906;52.046;4.724;2022-10-16T07:08:07;3.28;;;1.10;;
27539;SDS011;15906;52.046;4.724;2022-10-16T07:10:33;5.93;;;1.00;;
27539;SDS011;15906;52.046;4.724;2022-10-16T07:12:59;6.72;;;1.17;;
27539;SDS011;15906;52.046;4.724;2022-10-16T07:15:25;4.55;;;1.55;;
27539;SDS011;15906;52.046;4.724;2022-10-16T07:17:51;2.88;;;1.60;;
27539;SDS011;15906;52.046;4.724;2022-10-16T07:20:16;5.38;;;1.30;;
27539;SDS011;15906;52.046;4.724;2022-10-16T07:22:42;7.15;;;1.75;;
27539;SDS011;15906;52.046;4.724;2022-10-16T07:25:08;6.15;;;1.50;;
27539;SDS011;15906;52.046;4.724;2022-10-16T07:27:34;7.00;;;1.73;;
27539;SDS011;15906;52.046;4.724;2022-10-16T07:29:59;3.78;;;1.60;;
27539;SDS011;15906;52.046;4.724;2022-10-16T07:32:25;3.97;;;1.63;;
27539;SDS011;15906;52.046;4.724;2022-10-16T07:34:51;5.43;;;1.73;;
27539;SDS011;15906;52.046;4.724;2022-10-16T07:37:17;5.88;;;1.75;;
27539;SDS011;15906;52.046;4.724;2022-10-16T07:39:43;6.15;;;2.05;;
27539;SDS011;15906;52.046;4.724;2022-10-16T07:42:08;4.22;;;1.73;;
27539;SDS011;15906;52.046;4.724;2022-10-16T07:44:34;3.72;;;1.70;;
27539;SDS011;15906;52.046;4.724;2022-10-16T07:46:59;8.18;;;1.90;;
27539;SDS011;15906;52.046;4.724;2022-10-16T07:49:25;5.95;;;1.85;;
27539;SDS011;15906;52.046;4.724;2022-10-16T07:51:50;4.93;;;1.63;;
27539;SDS011;15906;52.046;4.724;2022-10-16T07:54:16;9.82;;;2.08;;
27539;SDS011;15906;52.046;4.724;2022-10-16T07:56:41;6.82;;;2.05;;
27539;SDS011;15906;52.046;4.724;2022-10-16T07:59:07;8.40;;;2.72;;
27539;SDS011;15906;52.046;4.724;2022-10-16T08:01:33;4.85;;;1.95;;
27539;SDS011;15906;52.046;4.724;2022-10-16T08:03:58;5.70;;;1.50;;
27539;SDS011;15906;52.046;4.724;2022-10-16T08:06:24;8.98;;;2.00;;
27539;SDS011;15906;52.046;4.724;2022-10-16T08:08:49;4.40;;;1.60;;
27539;SDS011;15906;52.046;4.724;2022-10-16T08:11:15;5.03;;;1.83;;
27539;SDS011;15906;52.046;4.724;2022-10-16T08:13:41;7.18;;;1.98;;
27539;SDS011;15906;52.046;4.724;2022-10-16T08:16:07;6.30;;;1.83;;
27539;SDS011;15906;52.046;4.724;2022-10-16T08:18:34;8.70;;;1.73;;
27539;SDS011;15906;52.046;4.724;2022-10-16T08:21:01;4.53;;;1.67;;
27539;SDS011;15906;52.046;4.724;2022-10-16T08:23:27;4.72;;;1.70;;
27539;SDS011;15906;52.046;4.724;2022-10-16T08:25:53;6.22;;;1.50;;
27539;SDS011;15906;52.046;4.724;2022-10-16T08:28:20;5.05;;;1.70;;
27539;SDS011;15906;52.046;4.724;2022-10-16T08:30:46;4.13;;;1.45;;
27539;SDS011;15906;52.046;4.724;2022-10-16T08:33:12;4.68;;;1.50;;
27539;SDS011;15906;52.046;4.724;2022-10-16T08:35:37;5.65;;;1.40;;
27539;SDS011;15906;52.046;4.724;2022-10-16T08:38:03;11.30;;;1.55;;
27539;SDS011;15906;52.046;4.724;2022-10-16T08:40:30;3.97;;;1.27;;
27539;SDS011;15906;52.046;4.724;2022-10-16T08:48:23;5.47;;;1.30;;
27539;SDS011;15906;52.046;4.724;2022-10-16T08:51:09;7.97;;;2.03;;
27539;SDS011;15906;52.046;4.724;2022-10-16T08:53:55;4.82;;;1.45;;
27539;SDS011;15906;52.046;4.724;2022-10-16T08:56:23;7.47;;;1.60;;
27539;SDS011;15906;52.046;4.724;2022-10-16T08:58:50;3.88;;;1.40;;
27539;SDS011;15906;52.046;4.724;2022-10-16T09:01:17;7.55;;;1.60;;
27539;SDS011;15906;52.046;4.724;2022-10-16T09:06:59;7.20;;;2.20;;
27539;SDS011;15906;52.046;4.724;2022-10-16T09:17:41;6.57;;;1.92;;
27539;SDS011;15906;52.046;4.724;2022-10-16T09:20:35;6.22;;;1.67;;
27539;SDS011;15906;52.046;4.724;2022-10-16T09:23:13;8.25;;;1.80;;
27539;SDS011;15906;52.046;4.724;2022-10-16T09:25:45;8.45;;;3.13;;
27539;SDS011;15906;52.046;4.724;2022-10-16T09:28:13;13.75;;;2.30;;
27539;SDS011;15906;52.046;4.724;2022-10-16T09:30:38;8.23;;;2.00;;
27539;SDS011;15906;52.046;4.724;2022-10-16T09:33:04;7.25;;;1.83;;
27539;SDS011;15906;52.046;4.724;2022-10-16T09:38:00;11.25;;;1.98;;
27539;SDS011;15906;52.046;4.724;2022-10-16T09:40:26;14.18;;;2.20;;
27539;SDS011;15906;52.046;4.724;2022-10-16T09:46:19;12.63;;;1.60;;
27539;SDS011;15906;52.046;4.724;2022-10-16T09:49:00;13.35;;;2.72;;
27539;SDS011;15906;52.046;4.724;2022-10-16T09:51:36;10.80;;;1.80;;
27539;SDS011;15906;52.046;4.724;2022-10-16T09:56:35;13.95;;;2.17;;
27539;SDS011;15906;52.046;4.724;2022-10-16T09:59:20;5.65;;;1.67;;
27539;SDS011;15906;52.046;4.724;2022-10-16T10:01:54;14.25;;;2.13;;
27539;SDS011;15906;52.046;4.724;2022-10-16T10:04:21;9.05;;;2.15;;
27539;SDS011;15906;52.046;4.724;2022-10-16T10:06:49;10.57;;;1.83;;
27539;SDS011;15906;52.046;4.724;2022-10-16T10:09:34;7.05;;;1.85;;
27539;SDS011;15906;52.046;4.724;2022-10-16T10:12:04;11.63;;;2.22;;
27539;SDS011;15906;52.046;4.724;2022-10-16T10:14:31;13.02;;;1.90;;
27539;SDS011;15906;52.046;4.724;2022-10-16T10:19:29;12.05;;;2.33;;
27539;SDS011;15906;52.046;4.724;2022-10-16T10:22:11;8.82;;;2.13;;
27539;SDS011;15906;52.046;4.724;2022-10-16T10:25:00;13.23;;;3.15;;
27539;SDS011;15906;52.046;4.724;2022-10-16T10:27:37;10.90;;;1.70;;
27539;SDS011;15906;52.046;4.724;2022-10-16T10:30:23;8.73;;;1.80;;
27539;SDS011;15906;52.046;4.724;2022-10-16T10:33:07;10.02;;;2.05;;
27539;SDS011;15906;52.046;4.724;2022-10-16T10:38:40;7.25;;;2.05;;
27539;SDS011;15906;52.046;4.724;2022-10-16T10:41:21;12.80;;;2.85;;
27539;SDS011;15906;52.046;4.724;2022-10-16T10:44:03;7.90;;;1.88;;
27539;SDS011;15906;52.046;4.724;2022-10-16T10:52:41;8.23;;;1.77;;
27539;SDS011;15906;52.046;4.724;2022-10-16T10:55:24;5.57;;;1.92;;
27539;SDS011;15906;52.046;4.724;2022-10-16T10:58:24;9.93;;;1.73;;
27539;SDS011;15906;52.046;4.724;2022-10-16T11:01:15;10.50;;;2.00;;
27539;SDS011;15906;52.046;4.724;2022-10-16T11:06:44;7.50;;;1.65;;
27539;SDS011;15906;52.046;4.724;2022-10-16T11:11:55;9.95;;;1.77;;
27539;SDS011;15906;52.046;4.724;2022-10-16T11:14:28;10.40;;;1.88;;
27539;SDS011;15906;52.046;4.724;2022-10-16T11:23:10;11.23;;;1.77;;
27539;SDS011;15906;52.046;4.724;2022-10-16T11:25:43;10.98;;;2.13;;
27539;SDS011;15906;52.046;4.724;2022-10-16T11:31:24;6.70;;;1.80;;
27539;SDS011;15906;52.046;4.724;2022-10-16T11:33:44;12.95;;;2.10;;
27539;SDS011;15906;52.046;4.724;2022-10-16T11:41:52;7.55;;;1.50;;
27539;SDS011;15906;52.046;4.724;2022-10-16T11:53:16;7.22;;;1.40;;
27539;SDS011;15906;52.046;4.724;2022-10-16T11:55:45;10.02;;;1.60;;
27539;SDS011;15906;52.046;4.724;2022-10-16T12:00:57;7.57;;;1.30;;
27539;SDS011;15906;52.046;4.724;2022-10-16T12:08:46;8.55;;;1.38;;
27539;SDS011;15906;52.046;4.724;2022-10-16T12:11:24;8.90;;;1.40;;
27539;SDS011;15906;52.046;4.724;2022-10-16T12:14:06;11.50;;;2.13;;
27539;SDS011;15906;52.046;4.724;2022-10-16T12:16:38;10.77;;;1.85;;
27539;SDS011;15906;52.046;4.724;2022-10-16T12:19:16;8.43;;;1.95;;
27539;SDS011;15906;52.046;4.724;2022-10-16T12:21:43;6.25;;;1.80;;
27539;SDS011;15906;52.046;4.724;2022-10-16T12:27:06;7.82;;;2.35;;
27539;SDS011;15906;52.046;4.724;2022-10-16T12:29:54;6.68;;;1.63;;
27539;SDS011;15906;52.046;4.724;2022-10-16T12:32:29;11.70;;;1.83;;
27539;SDS011;15906;52.046;4.724;2022-10-16T12:35:04;7.80;;;1.73;;
27539;SDS011;15906;52.046;4.724;2022-10-16T12:37:33;7.75;;;1.55;;
27539;SDS011;15906;52.046;4.724;2022-10-16T12:40:11;10.82;;;1.65;;
27539;SDS011;15906;52.046;4.724;2022-10-16T12:42:39;7.43;;;1.70;;
27539;SDS011;15906;52.046;4.724;2022-10-16T12:47:51;9.48;;;1.85;;
27539;SDS011;15906;52.046;4.724;2022-10-16T12:50:38;8.40;;;2.10;;
27539;SDS011;15906;52.046;4.724;2022-10-16T12:53:17;8.57;;;1.58;;
27539;SDS011;15906;52.046;4.724;2022-10-16T12:55:52;9.25;;;1.40;;
27539;SDS011;15906;52.046;4.724;2022-10-16T12:58:40;9.40;;;1.75;;
27539;SDS011;15906;52.046;4.724;2022-10-16T13:01:49;11.63;;;1.80;;
27539;SDS011;15906;52.046;4.724;2022-10-16T13:10:20;7.47;;;1.85;;
27539;SDS011;15906;52.046;4.724;2022-10-16T13:15:26;10.55;;;2.40;;
27539;SDS011;15906;52.046;4.724;2022-10-16T13:18:29;8.75;;;1.77;;
27539;SDS011;15906;52.046;4.724;2022-10-16T13:26:57;8.98;;;1.52;;
27539;SDS011;15906;52.046;4.724;2022-10-16T13:29:34;8.55;;;1.50;;
27539;SDS011;15906;52.046;4.724;2022-10-16T13:32:00;5.97;;;1.73;;
27539;SDS011;15906;52.046;4.724;2022-10-16T13:34:32;15.75;;;1.92;;
27539;SDS011;15906;52.046;4.724;2022-10-16T13:36:57;10.48;;;1.65;;
27539;SDS011;15906;52.046;4.724;2022-10-16T13:39:24;10.18;;;2.00;;
27539;SDS011;15906;52.046;4.724;2022-10-16T13:42:00;13.65;;;2.25;;
27539;SDS011;15906;52.046;4.724;2022-10-16T13:44:28;11.82;;;1.90;;
27539;SDS011;15906;52.046;4.724;2022-10-16T13:47:01;9.40;;;1.80;;
27539;SDS011;15906;52.046;4.724;2022-10-16T13:49:27;6.65;;;1.60;;
27539;SDS011;15906;52.046;4.724;2022-10-16T13:51:56;13.25;;;2.30;;
27539;SDS011;15906;52.046;4.724;2022-10-16T13:54:23;9.10;;;1.50;;
27539;SDS011;15906;52.046;4.724;2022-10-16T13:56:49;10.77;;;1.80;;
27539;SDS011;15906;52.046;4.724;2022-10-16T13:59:25;7.28;;;1.65;;
27539;SDS011;15906;52.046;4.724;2022-10-16T14:02:07;7.50;;;1.45;;
27539;SDS011;15906;52.046;4.724;2022-10-16T14:04:47;10.30;;;1.90;;
27539;SDS011;15906;52.046;4.724;2022-10-16T14:07:14;11.27;;;2.08;;
27539;SDS011;15906;52.046;4.724;2022-10-16T14:09:52;9.73;;;2.33;;
27539;SDS011;15906;52.046;4.724;2022-10-16T14:12:19;9.57;;;1.70;;
27539;SDS011;15906;52.046;4.724;2022-10-16T14:14:49;12.90;;;2.47;;
27539;SDS011;15906;52.046;4.724;2022-10-16T14:17:26;12.45;;;2.13;;
27539;SDS011;15906;52.046;4.724;2022-10-16T14:19:55;10.93;;;2.20;;
27539;SDS011;15906;52.046;4.724;2022-10-16T14:22:28;7.80;;;1.77;;
27539;SDS011;15906;52.046;4.724;2022-10-16T14:25:15;10.80;;;1.73;;
27539;SDS011;15906;52.046;4.724;2022-10-16T14:27:58;8.88;;;1.42;;
27539;SDS011;15906;52.046;4.724;2022-10-16T14:30:24;10.52;;;1.48;;
27539;SDS011;15906;52.046;4.724;2022-10-16T14:32:58;15.75;;;2.58;;
27539;SDS011;15906;52.046;4.724;2022-10-16T14:35:34;12.25;;;1.52;;
27539;SDS011;15906;52.046;4.724;2022-10-16T14:38:02;11.25;;;2.08;;
27539;SDS011;15906;52.046;4.724;2022-10-16T14:40:30;8.60;;;1.85;;
27539;SDS011;15906;52.046;4.724;2022-10-16T14:42:58;12.27;;;1.75;;
27539;SDS011;15906;52.046;4.724;2022-10-16T14:45:29;9.82;;;1.70;;
27539;SDS011;15906;52.046;4.724;2022-10-16T14:47:58;9.20;;;1.77;;
27539;SDS011;15906;52.046;4.724;2022-10-16T14:50:26;11.68;;;1.77;;
27539;SDS011;15906;52.046;4.724;2022-10-16T14:52:52;14.20;;;2.28;;
27539;SDS011;15906;52.046;4.724;2022-10-16T14:55:18;15.90;;;2.35;;
27539;SDS011;15906;52.046;4.724;2022-10-16T14:57:44;8.25;;;1.63;;
27539;SDS011;15906;52.046;4.724;2022-10-16T15:02:44;13.15;;;2.47;;
27539;SDS011;15906;52.046;4.724;2022-10-16T15:05:12;6.43;;;1.33;;
27539;SDS011;15906;52.046;4.724;2022-10-16T15:07:43;14.68;;;1.73;;
27539;SDS011;15906;52.046;4.724;2022-10-16T15:10:09;12.13;;;3.30;;
27539;SDS011;15906;52.046;4.724;2022-10-16T15:12:35;12.85;;;1.90;;
27539;SDS011;15906;52.046;4.724;2022-10-16T15:15:00;11.07;;;2.67;;
27539;SDS011;15906;52.046;4.724;2022-10-16T15:17:26;14.02;;;2.13;;
27539;SDS011;15906;52.046;4.724;2022-10-16T15:19:52;7.07;;;1.83;;
27539;SDS011;15906;52.046;4.724;2022-10-16T15:22:17;14.13;;;3.05;;
27539;SDS011;15906;52.046;4.724;2022-10-16T15:24:43;9.75;;;2.05;;
27539;SDS011;15906;52.046;4.724;2022-10-16T15:27:09;9.25;;;1.92;;
27539;SDS011;15906;52.046;4.724;2022-10-16T15:29:34;11.13;;;3.08;;
27539;SDS011;15906;52.046;4.724;2022-10-16T15:32:00;10.45;;;3.05;;
27539;SDS011;15906;52.046;4.724;2022-10-16T15:34:25;17.25;;;3.35;;
27539;SDS011;15906;52.046;4.724;2022-10-16T15:36:51;11.27;;;3.28;;
27539;SDS011;15906;52.046;4.724;2022-10-16T15:39:20;12.05;;;3.00;;
27539;SDS011;15906;52.046;4.724;2022-10-16T15:41:46;16.20;;;4.30;;
27539;SDS011;15906;52.046;4.724;2022-10-16T15:44:15;7.93;;;4.25;;
27539;SDS011;15906;52.046;4.724;2022-10-16T15:46:45;12.60;;;5.30;;
27539;SDS011;15906;52.046;4.724;2022-10-16T15:49:11;11.35;;;3.78;;
27539;SDS011;15906;52.046;4.724;2022-10-16T15:51:37;12.48;;;3.83;;
27539;SDS011;15906;52.046;4.724;2022-10-16T15:54:04;10.20;;;3.30;;
27539;SDS011;15906;52.046;4.724;2022-10-16T15:56:29;11.32;;;4.45;;
27539;SDS011;15906;52.046;4.724;2022-10-16T15:58:58;10.27;;;3.78;;
27539;SDS011;15906;52.046;4.724;2022-10-16T16:01:24;11.13;;;4.00;;
27539;SDS011;15906;52.046;4.724;2022-10-16T16:03:53;14.90;;;4.65;;
27539;SDS011;15906;52.046;4.724;2022-10-16T16:06:19;13.25;;;4.13;;
27539;SDS011;15906;52.046;4.724;2022-10-16T16:08:45;14.30;;;5.38;;
27539;SDS011;15906;52.046;4.724;2022-10-16T16:11:12;15.13;;;4.45;;
27539;SDS011;15906;52.046;4.724;2022-10-16T16:13:39;9.00;;;3.28;;
27539;SDS011;15906;52.046;4.724;2022-10-16T16:16:09;15.05;;;3.55;;
27539;SDS011;15906;52.046;4.724;2022-10-16T16:18:37;11.65;;;2.92;;
27539;SDS011;15906;52.046;4.724;2022-10-16T16:21:02;12.85;;;3.00;;
27539;SDS011;15906;52.046;4.724;2022-10-16T16:23:28;11.57;;;2.83;;
27539;SDS011;15906;52.046;4.724;2022-10-16T16:28:32;7.05;;;1.95;;
27539;SDS011;15906;52.046;4.724;2022-10-16T16:30:58;12.02;;;2.17;;
27539;SDS011;15906;52.046;4.724;2022-10-16T16:33:23;11.45;;;2.20;;
27539;SDS011;15906;52.046;4.724;2022-10-16T16:35:49;13.15;;;2.10;;
27539;SDS011;15906;52.046;4.724;2022-10-16T16:38:14;10.57;;;2.35;;
27539;SDS011;15906;52.046;4.724;2022-10-16T16:40:40;11.65;;;2.38;;
27539;SDS011;15906;52.046;4.724;2022-10-16T16:43:05;14.10;;;2.60;;
27539;SDS011;15906;52.046;4.724;2022-10-16T16:45:34;9.05;;;2.15;;
27539;SDS011;15906;52.046;4.724;2022-10-16T16:48:00;17.30;;;2.33;;
27539;SDS011;15906;52.046;4.724;2022-10-16T16:50:26;7.75;;;2.10;;